Aérodrome :
LOGIN :

S'inscrire | Disclaimer

   EN    FR    IT 

 










Légende :    VFR   VFR Marginal   IFR   IFR Intensif   IFR Très Intensif
Visi : 
Plafond : 
>= 8 km
>= 3000ft
5 à 8 km
1000 à 3000 ft
1500m à 5 km
500 à 1000 ft
800 à 1500m
200 à 500 ft
< 800m
< 200 ft
Symboles :   Orages  Brouillard  Fortes neiges  Fortes précipitations  Vent > 20 kt
SIGMETs :   Divers  Orages  Givrage  Turbulence  Onde Orograph.  Cendres Volcan.







- Altitude de l'aérodrome : 464 ft
- Code IATA : EVX
- Voir les cartes d'approche


LFOE - Evreux

DERNIER METAR :
  • 102000Z AUTO 27004KT CAVOK 06/04 Q1028 BECMG 3000 BR

METARs EXPIRÉS :
  • 101930Z AUTO 27005KT CAVOK 06/04 Q1028 BECMG 3000 BR
  • 101900Z AUTO 27006KT CAVOK 06/04 Q1028 BECMG 3000 BR
  • 101830Z AUTO 27005KT CAVOK 07/04 Q1028 BECMG 3000 BR
  • 101800Z AUTO 28006KT CAVOK 07/04 Q1028 NOSIG
  • 101730Z AUTO 26005KT CAVOK 06/03 Q1028 NOSIG

TAF TAF LFOE
Valide du 10 à 15h jusqu'au 11 à 15h UTC


101400Z 1015/1115 28010G20KT 9999 SCT025 SCT040
PROB30
TEMPO 1015/1016 4000 -SHRA BKN025
BECMG 1020/1022 VRB03KT 3000 BR
TEMPO 1023/1108 0500 BCFG BKN001
BECMG 1108/1110 10005KT 9999 NSW BKN005
BECMG 1110/1112 BKN010
Pas de NOTAMs connus pour ce terrain.



MET'MAP, la Météo Aéronautique d'un coup d'oeil ! - Copyright ORBIFLY Décembre 2007 - Disclaimer

ORBIFLY MET'MAP TEAM :

Programmation & Développement : Alexandra Zaïnal
Conception & Développement : Baudouin d'Aumeries
Co-Programmation & Développement : Marc-Olivier Méhu
Soutien technique & logistique : Manuel Goepfert

Contact : metmap@orbifly.com




SOURCES & CREDITS :

   NOAA